Time;durP1;ratioP1;P1;durP2;ratioP2;P2;SDS_P1;SDS_P2;PMS_P1;PMS_P2;Temp;Humidity;BMP_temperature;BMP_pressure;BME280_temperature;BME280_humidity;BME280_pressure;Samples;Min_cycle;Max_cycle;Signal;HPM_P1;HPM_P2
2024/03/29 00:01:18;;;;;;;2.43;1.63;;;7.40;99.90;;;;;;5058751;28;20248;-38
2024/03/29 00:03:44;;;;;;;2.60;1.47;;;7.40;99.90;;;;;;5076326;28;20189;-39
2024/03/29 00:06:10;;;;;;;1.47;1.00;;;7.50;99.90;;;;;;5076608;28;20330;-39
2024/03/29 00:08:37;;;;;;;2.13;1.20;;;7.50;99.90;;;;;;5076354;28;20481;-41
2024/03/29 00:11:02;;;;;;;1.67;1.20;;;7.50;99.90;;;;;;5076140;28;20373;-40
2024/03/29 00:13:28;;;;;;;2.40;1.30;;;7.50;99.90;;;;;;5077247;28;20706;-39
2024/03/29 00:15:54;;;;;;;1.80;1.23;;;7.50;99.90;;;;;;5076384;28;20434;-40
2024/03/29 00:18:34;;;;;;;2.30;1.17;;;7.50;99.90;;;;;;5077729;28;20192;-38
2024/03/29 00:21:00;;;;;;;2.40;1.90;;;7.50;99.90;;;;;;5076989;28;20520;-39
2024/03/29 00:23:26;;;;;;;2.20;1.40;;;7.50;99.90;;;;;;5076453;28;20177;-40
2024/03/29 00:25:51;;;;;;;1.90;1.30;;;7.40;99.90;;;;;;5074814;28;20177;-39
2024/03/29 00:28:17;;;;;;;2.07;1.30;;;7.40;99.90;;;;;;5076003;28;20532;-38
2024/03/29 00:30:43;;;;;;;2.93;1.17;;;7.40;99.90;;;;;;5075308;28;20192;-39
2024/03/29 00:33:09;;;;;;;1.20;0.90;;;7.40;99.90;;;;;;5074389;28;20246;-39
2024/03/29 00:35:35;;;;;;;2.00;1.10;;;7.40;99.90;;;;;;5074879;28;20522;-38
2024/03/29 00:38:00;;;;;;;1.77;1.27;;;7.30;99.90;;;;;;5075909;28;20213;-39
2024/03/29 00:40:26;;;;;;;1.53;1.40;;;7.30;99.90;;;;;;5077016;28;20225;-41
2024/03/29 00:42:51;;;;;;;1.80;1.10;;;7.20;99.90;;;;;;5076930;28;20308;-39
2024/03/29 00:45:17;;;;;;;2.13;1.03;;;7.30;99.90;;;;;;5076703;28;20330;-38
2024/03/29 00:47:42;;;;;;;1.50;1.17;;;7.30;99.90;;;;;;5078437;28;20556;-41
2024/03/29 00:50:09;;;;;;;1.77;1.13;;;7.30;99.90;;;;;;5081185;28;20467;-40
2024/03/29 00:52:36;;;;;;;5.33;2.40;;;7.30;99.90;;;;;;5085718;28;20191;-40
2024/03/29 00:55:03;;;;;;;5.07;2.10;;;7.30;99.90;;;;;;5067932;28;20458;-40
2024/03/29 00:57:28;;;;;;;6.87;3.90;;;7.30;99.90;;;;;;5084893;28;20774;-41
2024/03/29 00:59:56;;;;;;;5.30;3.17;;;7.30;99.90;;;;;;5085004;28;20499;-40
2024/03/29 01:02:22;;;;;;;7.40;3.80;;;7.30;99.90;;;;;;5067598;28;20185;-40
2024/03/29 01:04:48;;;;;;;7.90;3.60;;;7.40;99.90;;;;;;5085403;28;20472;-39
2024/03/29 01:07:16;;;;;;;7.20;3.43;;;7.40;99.90;;;;;;5081535;28;20177;-39
2024/03/29 01:09:43;;;;;;;6.07;3.50;;;7.40;99.90;;;;;;5081153;28;20433;-39
2024/03/29 01:12:09;;;;;;;7.57;2.97;;;7.40;99.90;;;;;;5063120;28;20827;-40
2024/03/29 01:14:34;;;;;;;5.63;3.60;;;7.40;99.90;;;;;;5080236;28;20501;-39
2024/03/29 01:17:00;;;;;;;7.93;5.67;;;7.50;99.90;;;;;;5080512;28;20581;-39
2024/03/29 01:19:27;;;;;;;8.80;4.57;;;7.50;99.90;;;;;;5080866;28;20184;-39
2024/03/29 01:21:52;;;;;;;3.17;2.13;;;7.50;99.90;;;;;;5080296;28;20431;-41
2024/03/29 01:24:18;;;;;;;6.27;3.97;;;7.50;99.90;;;;;;5080490;28;20892;-39
2024/03/29 01:26:44;;;;;;;3.53;2.37;;;7.50;99.90;;;;;;5080846;28;20168;-40
2024/03/29 01:29:10;;;;;;;4.37;2.80;;;7.50;99.90;;;;;;5080264;28;20260;-39
2024/03/29 01:31:36;;;;;;;5.57;4.00;;;7.60;99.90;;;;;;5080112;28;20839;-38
2024/03/29 01:34:02;;;;;;;4.30;3.00;;;7.60;99.90;;;;;;5080133;28;20431;-39
2024/03/29 01:36:28;;;;;;;4.63;2.57;;;7.60;99.90;;;;;;5080391;28;20474;-39
2024/03/29 01:38:56;;;;;;;3.80;2.83;;;7.70;99.90;;;;;;5080220;28;20518;-42
2024/03/29 01:41:23;;;;;;;6.20;4.00;;;7.60;99.90;;;;;;5080075;28;20475;-39
2024/03/29 01:43:49;;;;;;;3.90;2.60;;;7.70;99.90;;;;;;5079791;28;20412;-40
2024/03/29 01:46:15;;;;;;;4.93;3.30;;;7.70;99.90;;;;;;5062256;28;20411;-39
2024/03/29 01:48:41;;;;;;;2.67;1.93;;;7.70;99.90;;;;;;5062137;28;20446;-40
2024/03/29 01:51:06;;;;;;;4.90;3.10;;;7.70;99.90;;;;;;5061477;28;20545;-39
2024/03/29 01:53:32;;;;;;;9.27;3.97;;;7.70;99.90;;;;;;5078586;28;20461;-39
2024/03/29 01:56:00;;;;;;;8.93;4.70;;;7.60;99.90;;;;;;5079802;28;20213;-39
2024/03/29 01:58:26;;;;;;;6.87;4.43;;;7.60;99.90;;;;;;5079934;28;20170;-40
2024/03/29 02:00:54;;;;;;;2.67;2.10;;;7.60;99.90;;;;;;5078637;28;20733;-40
2024/03/29 02:03:20;;;;;;;1.40;1.03;;;7.60;99.90;;;;;;5079057;28;20212;-39
2024/03/29 02:05:47;;;;;;;2.07;1.10;;;7.60;99.90;;;;;;5079407;28;20433;-39
2024/03/29 02:08:14;;;;;;;1.67;1.13;;;7.60;99.90;;;;;;5079173;28;20886;-40
2024/03/29 02:10:39;;;;;;;2.80;1.00;;;7.60;99.90;;;;;;5078825;28;20463;-40
2024/03/29 02:13:05;;;;;;;1.20;0.70;;;7.60;99.90;;;;;;5078051;28;21032;-40
2024/03/29 02:15:31;;;;;;;3.13;0.80;;;7.60;99.90;;;;;;5078230;28;20288;-41
2024/03/29 02:17:57;;;;;;;1.60;1.13;;;7.60;99.90;;;;;;5078631;28;20220;-39
2024/03/29 02:20:23;;;;;;;1.10;0.60;;;7.70;99.90;;;;;;5079257;28;20490;-39
2024/03/29 02:23:04;;;;;;;1.83;0.90;;;7.70;99.90;;;;;;5078635;28;20690;-39
2024/03/29 02:25:29;;;;;;;1.10;0.83;;;7.70;99.90;;;;;;5079244;28;20434;-42
2024/03/29 02:27:56;;;;;;;1.10;0.80;;;7.70;99.90;;;;;;5060876;28;20837;-39
2024/03/29 02:30:21;;;;;;;1.70;0.80;;;7.70;99.90;;;;;;5060923;28;20201;-41
2024/03/29 02:32:47;;;;;;;1.77;1.03;;;7.70;99.90;;;;;;5078325;28;20443;-40
2024/03/29 02:35:12;;;;;;;1.10;0.70;;;7.70;99.90;;;;;;5078820;28;20201;-40
2024/03/29 02:37:38;;;;;;;1.27;1.00;;;7.70;99.90;;;;;;5078588;28;20208;-39
2024/03/29 02:40:05;;;;;;;1.07;0.70;;;7.60;99.90;;;;;;5079349;28;20368;-39
2024/03/29 02:42:32;;;;;;;1.10;0.77;;;7.60;99.90;;;;;;5058811;28;20200;-38
2024/03/29 02:44:57;;;;;;;1.17;1.00;;;7.60;99.90;;;;;;5058709;28;20814;-39
2024/03/29 02:47:23;;;;;;;1.30;0.80;;;7.60;99.90;;;;;;5059066;28;20510;-42
2024/03/29 02:49:49;;;;;;;1.33;0.63;;;7.60;99.90;;;;;;5059061;28;20368;-39
2024/03/29 02:52:14;;;;;;;1.17;1.00;;;7.60;99.90;;;;;;5058695;28;20249;-40
2024/03/29 02:54:41;;;;;;;1.57;1.27;;;7.60;99.90;;;;;;5058488;28;20208;-40
2024/03/29 02:57:07;;;;;;;1.47;0.73;;;7.60;99.90;;;;;;5058293;28;20232;-39
2024/03/29 02:59:33;;;;;;;1.93;0.90;;;7.60;99.90;;;;;;5057947;28;20428;-41
2024/03/29 03:01:58;;;;;;;1.40;0.90;;;7.60;99.90;;;;;;5058447;28;20429;-39
2024/03/29 03:04:24;;;;;;;1.00;0.73;;;7.60;99.90;;;;;;5058034;28;20267;-41
2024/03/29 03:06:49;;;;;;;1.60;0.80;;;7.50;99.90;;;;;;5056794;28;20524;-39
2024/03/29 03:11:59;;;;;;;3.40;2.40;;;7.50;99.90;;;;;;5056386;28;20188;-39
2024/03/29 03:14:25;;;;;;;2.10;1.80;;;7.50;99.90;;;;;;5056561;28;20440;-39
2024/03/29 03:16:50;;;;;;;3.73;1.50;;;7.40;99.90;;;;;;5056226;28;20224;-40
2024/03/29 03:19:16;;;;;;;4.77;1.00;;;7.50;99.90;;;;;;5056677;28;20185;-38
2024/03/29 03:21:41;;;;;;;1.63;0.80;;;7.40;99.90;;;;;;5057975;28;20309;-39
2024/03/29 03:24:07;;;;;;;1.60;0.77;;;7.40;99.90;;;;;;5056919;28;20467;-40
2024/03/29 03:26:33;;;;;;;1.70;1.03;;;7.40;99.90;;;;;;5056815;28;20201;-39
2024/03/29 03:28:58;;;;;;;1.20;0.93;;;7.40;99.90;;;;;;5057929;28;20273;-41
2024/03/29 03:31:24;;;;;;;1.40;0.80;;;7.40;99.90;;;;;;5057933;28;20256;-39
2024/03/29 03:33:49;;;;;;;3.20;1.10;;;7.40;1.00;;;;;;5057621;28;20548;-39
2024/03/29 03:39:37;;;;;;;2.40;1.03;;;7.40;1.00;;;;;;5058031;28;20579;-40
2024/03/29 03:42:03;;;;;;;2.40;1.20;;;7.20;1.00;;;;;;5074219;28;20555;-43
2024/03/29 03:44:29;;;;;;;1.17;0.87;;;7.20;1.00;;;;;;5077649;28;20481;-41
2024/03/29 03:46:55;;;;;;;1.47;1.20;;;7.20;1.00;;;;;;5077214;28;20267;-42
2024/03/29 03:49:21;;;;;;;1.47;1.10;;;7.20;1.00;;;;;;5077390;28;20617;-40
2024/03/29 03:51:46;;;;;;;1.63;1.10;;;7.30;1.00;;;;;;5076686;28;20549;-39
2024/03/29 03:54:12;;;;;;;2.57;1.20;;;7.20;1.00;;;;;;5076536;28;20537;-39
2024/03/29 03:56:37;;;;;;;1.60;1.20;;;7.30;52.20;;;;;;5077537;28;20235;-40
2024/03/29 03:59:03;;;;;;;3.30;1.20;;;7.20;99.90;;;;;;5077614;28;20263;-39
2024/03/29 04:01:29;;;;;;;1.47;0.90;;;7.20;26.90;;;;;;5077884;28;20185;-41
2024/03/29 04:03:54;;;;;;;2.20;1.03;;;7.20;14.60;;;;;;5077575;28;20455;-39
2024/03/29 04:06:20;;;;;;;2.07;0.90;;;7.20;1.00;;;;;;5077872;28;20263;-39
2024/03/29 04:08:45;;;;;;;1.07;0.87;;;7.40;1.00;;;;;;5076959;28;20205;-52
2024/03/29 04:11:11;;;;;;;2.30;1.27;;;7.40;1.00;;;;;;5077697;28;20199;-39
2024/03/29 04:13:38;;;;;;;1.10;0.90;;;7.50;1.00;;;;;;5076947;28;20435;-41
2024/03/29 04:16:07;;;;;;;5.27;3.10;;;7.50;99.90;;;;;;5059457;28;20192;-41
2024/03/29 04:18:36;;;;;;;3.10;1.80;;;7.50;99.90;;;;;;5077173;28;20428;-39
2024/03/29 04:21:03;;;;;;;1.50;0.70;;;7.60;99.90;;;;;;5077590;28;20698;-39
2024/03/29 04:23:29;;;;;;;3.47;1.50;;;7.70;99.90;;;;;;5077525;28;20407;-38
2024/03/29 04:25:59;;;;;;;2.73;1.40;;;7.70;99.90;;;;;;5080991;28;20430;-40
2024/03/29 04:28:25;;;;;;;2.13;1.27;;;7.80;99.90;;;;;;5081191;28;20477;-39
2024/03/29 04:30:58;;;;;;;1.30;0.93;;;7.90;99.90;;;;;;5064122;28;20543;-41
2024/03/29 04:33:24;;;;;;;1.63;0.97;;;7.90;99.90;;;;;;5081557;28;20427;-39
2024/03/29 04:35:54;;;;;;;1.00;0.70;;;7.80;99.90;;;;;;5081138;28;20498;-40
2024/03/29 04:38:20;;;;;;;1.30;0.80;;;7.80;99.90;;;;;;5081365;28;20518;-40
2024/03/29 04:40:45;;;;;;;1.87;0.70;;;7.70;99.90;;;;;;5080193;28;20551;-41
2024/03/29 04:43:11;;;;;;;1.53;0.90;;;7.70;99.90;;;;;;5079772;28;20177;-40
2024/03/29 04:45:37;;;;;;;1.50;0.97;;;7.80;99.90;;;;;;5081371;28;20173;-41
2024/03/29 04:48:02;;;;;;;2.00;0.80;;;7.70;99.90;;;;;;5080460;28;20181;-39
2024/03/29 04:50:28;;;;;;;1.90;1.13;;;7.70;99.90;;;;;;5078657;28;20169;-40
2024/03/29 04:52:54;;;;;;;1.30;0.90;;;7.70;99.90;;;;;;5080160;28;20629;-40
2024/03/29 04:55:19;;;;;;;2.27;1.00;;;7.70;1.00;;;;;;5062563;28;20195;-40
2024/03/29 04:57:45;;;;;;;2.03;1.20;;;7.70;1.00;;;;;;5080720;28;20295;-40
2024/03/29 05:00:11;;;;;;;1.90;1.07;;;7.80;99.90;;;;;;5080899;28;20471;-41
2024/03/29 05:02:37;;;;;;;2.93;1.97;;;7.80;99.90;;;;;;5080277;28;20188;-40
2024/03/29 05:05:03;;;;;;;6.67;3.67;;;7.80;99.90;;;;;;5080165;28;20434;-41
2024/03/29 05:07:29;;;;;;;7.37;4.43;;;7.80;99.90;;;;;;5061571;28;20805;-40
2024/03/29 05:09:55;;;;;;;3.87;2.27;;;7.80;99.90;;;;;;5078549;28;20419;-39
2024/03/29 05:12:24;;;;;;;2.27;1.33;;;7.70;99.90;;;;;;5076518;28;20177;-40
2024/03/29 05:14:49;;;;;;;2.37;1.17;;;7.70;99.90;;;;;;5076365;28;20461;-38
2024/03/29 05:17:16;;;;;;;1.37;0.87;;;7.80;99.90;;;;;;5075852;28;20498;-41
2024/03/29 05:19:43;;;;;;;1.83;0.90;;;7.80;99.90;;;;;;5076437;28;20199;-42
2024/03/29 05:22:09;;;;;;;2.10;0.93;;;7.80;99.90;;;;;;5076805;28;20497;-40
2024/03/29 05:24:34;;;;;;;2.20;1.10;;;7.90;99.90;;;;;;5077278;28;20825;-39
2024/03/29 05:27:00;;;;;;;1.50;1.20;;;7.90;99.90;;;;;;5078438;28;20181;-41
2024/03/29 05:29:25;;;;;;;2.80;1.40;;;7.90;99.90;;;;;;5062225;28;20504;-40
2024/03/29 05:31:51;;;;;;;1.67;1.23;;;7.90;99.90;;;;;;5078013;28;20268;-40
2024/03/29 05:34:16;;;;;;;1.60;1.33;;;8.00;99.90;;;;;;5077946;28;20436;-40
2024/03/29 05:36:44;;;;;;;1.80;1.20;;;8.00;99.90;;;;;;5077789;28;20228;-39
2024/03/29 05:39:09;;;;;;;1.23;1.07;;;8.00;99.90;;;;;;5078577;28;20196;-39
2024/03/29 05:41:35;;;;;;;3.00;1.53;;;8.00;99.90;;;;;;5078136;28;20459;-41
2024/03/29 05:44:00;;;;;;;2.07;1.50;;;8.00;99.90;;;;;;5078073;28;20216;-39
2024/03/29 05:46:26;;;;;;;2.07;1.50;;;7.90;99.90;;;;;;5079244;28;20188;-38
2024/03/29 05:48:51;;;;;;;2.13;1.53;;;8.00;99.90;;;;;;5078928;28;20185;-40
2024/03/29 05:51:17;;;;;;;4.30;1.57;;;8.00;99.90;;;;;;5079664;28;20177;-39
2024/03/29 05:53:43;;;;;;;2.00;1.10;;;8.00;99.90;;;;;;5079716;28;20181;-39
2024/03/29 05:56:08;;;;;;;1.93;1.30;;;8.00;99.90;;;;;;5079499;28;20180;-41
2024/03/29 05:58:34;;;;;;;1.87;1.40;;;8.10;99.90;;;;;;5079545;28;20563;-40
2024/03/29 06:01:00;;;;;;;1.57;1.00;;;8.10;99.90;;;;;;5079563;28;20181;-37
2024/03/29 06:03:25;;;;;;;1.30;0.93;;;8.20;99.90;;;;;;5079069;28;20177;-36
2024/03/29 06:05:51;;;;;;;1.70;1.23;;;8.20;99.90;;;;;;5079594;28;20188;-42
2024/03/29 06:08:17;;;;;;;3.40;1.70;;;8.30;99.90;;;;;;5079038;28;20188;-40
2024/03/29 06:10:43;;;;;;;3.03;2.37;;;8.50;1.00;;;;;;5078764;28;20248;-39
2024/03/29 06:13:17;;;;;;;1.80;1.47;;;8.60;99.90;;;;;;5077584;28;20717;-41
2024/03/29 06:18:27;;;;;;;1.73;1.37;;;8.90;99.90;;;;;;5077715;28;20426;-41
2024/03/29 06:20:53;;;;;;;1.90;1.53;;;9.00;99.90;;;;;;5077758;28;20427;-40
2024/03/29 06:23:18;;;;;;;2.60;1.50;;;9.10;99.90;;;;;;5076919;28;20516;-39
2024/03/29 06:25:44;;;;;;;2.37;1.43;;;9.10;99.90;;;;;;5077803;28;20176;-40
2024/03/29 06:28:10;;;;;;;1.30;0.90;;;9.20;99.90;;;;;;5078567;28;20178;-40
2024/03/29 06:30:36;;;;;;;1.63;1.30;;;9.20;99.90;;;;;;5078124;28;20488;-39
2024/03/29 06:33:03;;;;;;;1.63;1.20;;;9.20;99.90;;;;;;5078422;28;20185;-40
2024/03/29 06:35:29;;;;;;;2.23;1.00;;;9.20;99.90;;;;;;5077952;28;20556;-38
2024/03/29 06:37:56;;;;;;;2.97;1.20;;;9.30;99.90;;;;;;5078053;28;20467;-38
2024/03/29 06:40:21;;;;;;;2.23;1.10;;;9.30;99.90;;;;;;5078673;28;20715;-40
2024/03/29 06:42:47;;;;;;;2.63;1.67;;;9.40;99.90;;;;;;5078591;28;20445;-40
2024/03/29 06:45:12;;;;;;;1.63;1.10;;;9.40;99.90;;;;;;5078262;28;20280;-41
2024/03/29 06:47:38;;;;;;;1.53;1.20;;;9.40;99.90;;;;;;5076909;28;20173;-40
2024/03/29 06:50:05;;;;;;;1.40;0.80;;;9.50;98.60;;;;;;5077015;28;20260;-40
2024/03/29 06:52:30;;;;;;;1.87;1.30;;;9.50;74.60;;;;;;5076902;28;20242;-40
2024/03/29 06:54:56;;;;;;;3.60;1.80;;;9.50;69.40;;;;;;5076982;28;20944;-40
2024/03/29 06:57:25;;;;;;;2.33;1.00;;;9.60;43.60;;;;;;5076913;28;20348;-40
2024/03/29 06:59:51;;;;;;;1.80;1.10;;;9.60;17.80;;;;;;5076540;28;20169;-42
2024/03/29 07:02:16;;;;;;;2.23;1.57;;;9.70;8.40;;;;;;5076205;28;20414;-41
2024/03/29 07:04:42;;;;;;;2.83;1.50;;;9.80;6.80;;;;;;5076897;28;20488;-42
2024/03/29 07:07:08;;;;;;;1.50;1.10;;;9.80;7.50;;;;;;5077306;28;20208;-40
2024/03/29 07:09:33;;;;;;;1.57;1.00;;;9.80;12.30;;;;;;5077283;28;20208;-41
2024/03/29 07:11:59;;;;;;;2.40;1.03;;;9.80;6.70;;;;;;5076297;28;20553;-40
2024/03/29 07:14:26;;;;;;;2.70;1.00;;;9.80;1.00;;;;;;5077577;28;20216;-39
2024/03/29 07:16:52;;;;;;;1.60;1.10;;;9.70;1.00;;;;;;5077228;28;20212;-39
2024/03/29 07:19:18;;;;;;;2.93;1.83;;;9.60;1.00;;;;;;5059811;28;20792;-39
2024/03/29 07:21:45;;;;;;;2.00;1.40;;;9.50;1.00;;;;;;5075945;28;20868;-39
2024/03/29 07:24:11;;;;;;;1.67;1.30;;;9.50;1.00;;;;;;5042699;28;20508;-40
2024/03/29 07:26:37;;;;;;;2.00;1.20;;;9.40;5.70;;;;;;5059753;28;20758;-42
2024/03/29 07:29:05;;;;;;;3.23;2.00;;;9.30;74.70;;;;;;5076750;28;20492;-40
2024/03/29 07:31:31;;;;;;;2.60;1.80;;;9.10;99.90;;;;;;5077085;28;20642;-39
2024/03/29 07:33:56;;;;;;;2.17;1.50;;;9.10;1.00;;;;;;5076976;28;20489;-39
2024/03/29 07:36:24;;;;;;;2.50;1.90;;;9.00;99.90;;;;;;5076590;28;20577;-40
2024/03/29 07:38:50;;;;;;;1.97;1.53;;;8.90;99.90;;;;;;5077595;28;20385;-40
2024/03/29 07:41:16;;;;;;;4.07;3.67;;;8.80;99.90;;;;;;5077467;28;20459;-42
2024/03/29 07:44:03;;;;;;;5.80;4.10;;;8.70;99.90;;;;;;5077488;28;20238;-40
2024/03/29 07:46:32;;;;;;;5.63;4.97;;;8.70;1.00;;;;;;5077501;28;20439;-40
2024/03/29 07:48:58;;;;;;;5.23;4.83;;;8.70;99.90;;;;;;5077525;28;20446;-40
2024/03/29 07:51:23;;;;;;;2.00;1.70;;;8.50;1.00;;;;;;5077594;28;20713;-40
2024/03/29 07:53:49;;;;;;;3.13;1.60;;;8.40;55.10;;;;;;5076127;28;20582;-40
2024/03/29 07:56:15;;;;;;;1.43;1.10;;;8.30;23.90;;;;;;5076226;28;20185;-41
2024/03/29 07:58:41;;;;;;;2.20;1.30;;;8.20;40.30;;;;;;5076837;28;20215;-40
2024/03/29 08:01:06;;;;;;;2.00;1.20;;;8.20;99.90;;;;;;5081530;28;20435;-40
2024/03/29 08:03:34;;;;;;;1.80;1.33;;;8.20;99.90;;;;;;5080444;28;20196;-43
2024/03/29 08:05:59;;;;;;;3.67;1.57;;;8.30;99.90;;;;;;5080910;28;20180;-41
2024/03/29 08:08:27;;;;;;;2.37;1.20;;;8.30;99.90;;;;;;5080495;28;20407;-41
2024/03/29 08:10:53;;;;;;;1.70;1.10;;;8.40;99.90;;;;;;5062506;28;20192;-39
2024/03/29 08:13:20;;;;;;;2.60;1.60;;;8.40;1.00;;;;;;5063150;28;20864;-39
2024/03/29 08:15:46;;;;;;;2.00;1.43;;;8.40;1.00;;;;;;5079984;28;20560;-39
2024/03/29 08:18:12;;;;;;;2.43;1.47;;;8.50;1.00;;;;;;5078927;28;20658;-41
2024/03/29 08:20:37;;;;;;;1.60;1.10;;;8.50;11.40;;;;;;5080495;28;20402;-40
2024/03/29 08:23:03;;;;;;;3.30;1.70;;;8.60;99.90;;;;;;5079842;28;20172;-44
2024/03/29 08:25:29;;;;;;;1.63;1.23;;;8.70;99.90;;;;;;5080735;28;20272;-39
2024/03/29 08:27:58;;;;;;;2.10;1.20;;;8.70;99.90;;;;;;5062865;28;20496;-40
2024/03/29 08:30:34;;;;;;;3.27;1.27;;;8.70;99.90;;;;;;5079719;28;20777;-39
2024/03/29 08:33:03;;;;;;;1.93;1.10;;;8.70;1.00;;;;;;5081447;28;20440;-39
2024/03/29 08:35:30;;;;;;;1.27;1.00;;;8.70;1.00;;;;;;5080878;28;20411;-39
2024/03/29 08:37:55;;;;;;;1.90;1.10;;;8.70;1.00;;;;;;5080641;28;20474;-41
2024/03/29 08:40:21;;;;;;;1.60;1.20;;;8.70;1.00;;;;;;5079170;28;20465;-42
2024/03/29 08:42:47;;;;;;;1.80;1.23;;;8.90;1.00;;;;;;5078781;28;20451;-41
2024/03/29 08:45:13;;;;;;;2.40;2.20;;;9.00;28.60;;;;;;5080342;28;20529;-40
2024/03/29 08:47:39;;;;;;;1.73;1.30;;;9.10;95.10;;;;;;5063736;28;20494;-40
2024/03/29 08:50:05;;;;;;;1.20;1.00;;;9.20;99.90;;;;;;5080457;28;20419;-40
2024/03/29 08:52:31;;;;;;;1.80;1.27;;;9.20;99.90;;;;;;5081536;28;20185;-40
2024/03/29 08:54:56;;;;;;;28.83;5.17;;;9.30;99.90;;;;;;5081133;28;20441;-45
2024/03/29 08:57:22;;;;;;;16.13;3.57;;;10.10;1.00;;;;;;5081117;28;20502;-45
2024/03/29 08:59:47;;;;;;;3.80;2.30;;;11.70;99.90;;;;;;5081232;28;20674;-44
2024/03/29 09:02:13;;;;;;;2.27;1.77;;;12.20;1.00;;;;;;5082484;28;20213;-43
2024/03/29 09:04:39;;;;;;;2.50;1.80;;;12.20;99.90;;;;;;5082374;28;20191;-44
2024/03/29 09:07:05;;;;;;;1.80;1.30;;;11.90;99.90;;;;;;5082094;28;20296;-43
2024/03/29 09:09:32;;;;;;;3.80;1.10;;;11.70;99.90;;;;;;5078257;28;20181;-40
2024/03/29 09:11:58;;;;;;;1.90;1.40;;;11.50;99.90;;;;;;5059718;28;20427;-42
2024/03/29 09:14:24;;;;;;;1.90;1.57;;;11.30;99.90;;;;;;5077521;28;20477;-42
2024/03/29 09:16:50;;;;;;;3.30;1.57;;;11.10;1.00;;;;;;5077414;28;20478;-42
2024/03/29 09:19:16;;;;;;;3.57;1.93;;;11.00;1.00;;;;;;5075830;28;20891;-40
2024/03/29 09:21:42;;;;;;;5.33;2.27;;;10.90;1.00;;;;;;5076102;28;20427;-42
2024/03/29 09:24:08;;;;;;;3.07;1.93;;;10.80;1.00;;;;;;5078198;28;20250;-41
2024/03/29 09:26:33;;;;;;;5.60;1.90;;;10.70;1.00;;;;;;5079665;28;20403;-42
2024/03/29 09:28:59;;;;;;;3.73;1.80;;;10.70;1.00;;;;;;5079639;28;20181;-42
2024/03/29 09:31:25;;;;;;;4.20;1.80;;;10.40;1.00;;;;;;5078324;28;20413;-42
2024/03/29 09:33:57;;;;;;;3.17;1.80;;;10.30;1.00;;;;;;5060949;28;20430;-42
2024/03/29 09:36:23;;;;;;;2.23;1.50;;;10.20;1.00;;;;;;5061795;28;20208;-43
2024/03/29 09:38:50;;;;;;;5.97;3.93;;;10.10;62.70;;;;;;5060810;28;20411;-42
2024/03/29 09:41:17;;;;;;;5.50;3.97;;;10.30;99.90;;;;;;5079121;28;20459;-42
2024/03/29 09:43:46;;;;;;;3.03;1.63;;;10.50;99.90;;;;;;5079519;28;20706;-46
2024/03/29 09:46:15;;;;;;;3.30;1.70;;;11.20;99.90;;;;;;5061980;28;20435;-45
2024/03/29 09:48:42;;;;;;;3.60;2.47;;;12.50;99.90;;;;;;5079202;28;20833;-43
2024/03/29 09:51:08;;;;;;;2.50;1.93;;;13.10;1.00;;;;;;5079562;28;20416;-42
2024/03/29 09:53:38;;;;;;;3.43;2.10;;;13.40;99.90;;;;;;5059926;28;20633;-44
2024/03/29 09:56:06;;;;;;;2.27;2.03;;;13.40;99.90;;;;;;5079276;28;20431;-43
2024/03/29 09:58:36;;;;;;;2.40;2.20;;;13.20;22.50;;;;;;5061531;28;20836;-40
2024/03/29 10:01:06;;;;;;;3.37;2.00;;;13.10;1.00;;;;;;5078506;28;20415;-41
2024/03/29 10:03:40;;;;;;;4.97;2.40;;;13.10;1.00;;;;;;5078972;28;20527;-40
2024/03/29 10:06:09;;;;;;;3.13;2.20;;;13.10;99.90;;;;;;5079187;28;20518;-41
2024/03/29 10:08:37;;;;;;;3.80;2.00;;;13.10;1.00;;;;;;5061875;28;20416;-43
2024/03/29 10:11:03;;;;;;;1.80;1.57;;;13.30;1.00;;;;;;5061335;28;20412;-42
2024/03/29 10:13:28;;;;;;;2.03;1.57;;;13.50;1.00;;;;;;5079112;28;20522;-42
2024/03/29 10:15:58;;;;;;;2.60;1.83;;;13.70;99.90;;;;;;5078997;28;20859;-41
2024/03/29 10:18:27;;;;;;;1.77;1.27;;;14.20;99.90;;;;;;5077503;28;20205;-42
2024/03/29 10:21:06;;;;;;;2.00;1.80;;;15.00;99.90;;;;;;5076560;28;20535;-45
2024/03/29 10:23:35;;;;;;;3.87;1.03;;;15.70;1.00;;;;;;5078509;28;20395;-43
2024/03/29 10:26:01;;;;;;;2.87;1.53;;;16.00;1.00;;;;;;5078586;28;20422;-43
2024/03/29 10:28:34;;;;;;;2.50;1.50;;;16.00;25.20;;;;;;5061510;28;20462;-44
2024/03/29 10:31:04;;;;;;;4.63;1.83;;;16.00;24.90;;;;;;5062087;28;20492;-42
2024/03/29 10:33:31;;;;;;;2.70;2.10;;;15.90;40.30;;;;;;5044384;28;20431;-43
2024/03/29 10:35:58;;;;;;;5.20;2.10;;;16.00;51.20;;;;;;5078215;28;20428;-43
2024/03/29 10:38:25;;;;;;;2.80;1.63;;;16.20;1.00;;;;;;5077930;28;20458;-43
2024/03/29 10:40:52;;;;;;;2.00;1.50;;;16.40;1.00;;;;;;5077162;28;20474;-42
2024/03/29 10:43:19;;;;;;;3.67;2.30;;;16.80;1.00;;;;;;5077608;28;20419;-42
2024/03/29 10:45:46;;;;;;;1.97;1.43;;;16.90;99.90;;;;;;5078025;28;20427;-42
2024/03/29 10:48:15;;;;;;;2.23;1.60;;;16.90;99.90;;;;;;5077510;28;20881;-47
2024/03/29 10:50:42;;;;;;;4.80;1.70;;;16.90;99.90;;;;;;5078132;28;20408;-42
2024/03/29 10:53:09;;;;;;;2.20;1.70;;;17.10;1.00;;;;;;5078645;28;20452;-45
2024/03/29 10:55:36;;;;;;;2.23;1.70;;;17.10;1.00;;;;;;5078612;28;20514;-44
2024/03/29 10:58:06;;;;;;;2.73;1.70;;;17.10;99.90;;;;;;5077773;28;20554;-45
2024/03/29 11:00:40;;;;;;;1.90;1.40;;;17.30;99.90;;;;;;5077866;28;20423;-43
2024/03/29 11:03:32;;;;;;;2.90;1.83;;;17.30;99.90;;;;;;5099022;28;20444;-43
2024/03/29 11:06:04;;;;;;;1.63;1.30;;;17.00;99.90;;;;;;5098021;28;20419;-43
2024/03/29 11:08:34;;;;;;;3.90;1.57;;;16.60;99.90;;;;;;5078584;28;20774;-43
2024/03/29 11:11:01;;;;;;;1.80;1.50;;;16.30;99.90;;;;;;5077250;28;20424;-43
2024/03/29 11:13:30;;;;;;;3.93;1.53;;;16.30;99.90;;;;;;5077596;28;20434;-42
2024/03/29 11:15:56;;;;;;;1.87;1.60;;;16.40;99.90;;;;;;5059451;28;20671;-45
2024/03/29 11:18:24;;;;;;;5.17;4.67;;;16.60;99.90;;;;;;5075953;28;20482;-43
2024/03/29 11:20:51;;;;;;;3.30;2.43;;;16.80;99.90;;;;;;5059162;28;20238;-42
2024/03/29 11:23:19;;;;;;;1.70;1.60;;;17.00;99.90;;;;;;5058350;28;20412;-43
2024/03/29 11:25:48;;;;;;;2.80;1.40;;;17.60;99.90;;;;;;5076341;28;20833;-45
2024/03/29 11:28:21;;;;;;;1.80;1.40;;;18.10;99.90;;;;;;5074964;28;20717;-45
2024/03/29 11:30:48;;;;;;;4.17;1.83;;;18.60;98.30;;;;;;5076722;28;20442;-42
2024/03/29 11:33:29;;;;;;;2.43;1.50;;;18.70;49.20;;;;;;5076588;28;20894;-43
2024/03/29 11:35:55;;;;;;;1.97;1.60;;;18.90;42.30;;;;;;5075984;28;20426;-42
2024/03/29 11:38:20;;;;;;;2.07;1.53;;;19.00;47.60;;;;;;5058721;28;20459;-42
2024/03/29 11:41:16;;;;;;;2.23;1.30;;;19.00;20.60;;;;;;5061030;28;20474;-43
2024/03/29 11:43:43;;;;;;;1.70;1.30;;;18.90;1.00;;;;;;5077748;28;20474;-45
2024/03/29 11:46:12;;;;;;;2.40;1.70;;;18.30;1.00;;;;;;5075645;28;20439;-44
2024/03/29 11:48:38;;;;;;;1.60;1.20;;;18.00;1.00;;;;;;5074843;28;20423;-42
2024/03/29 11:51:11;;;;;;;2.00;1.20;;;17.70;1.00;;;;;;5075670;28;20427;-44
2024/03/29 11:53:37;;;;;;;2.40;1.37;;;17.50;1.00;;;;;;5076329;28;20483;-45
2024/03/29 11:56:04;;;;;;;1.67;1.17;;;17.40;1.00;;;;;;5076639;28;20419;-44
2024/03/29 11:58:32;;;;;;;2.47;1.37;;;17.20;1.00;;;;;;5058421;28;20574;-42
2024/03/29 12:00:59;;;;;;;2.47;1.20;;;16.90;1.00;;;;;;5058411;28;20850;-45
2024/03/29 12:03:26;;;;;;;1.40;1.10;;;16.90;1.00;;;;;;5059678;28;20726;-42
2024/03/29 12:06:02;;;;;;;1.53;1.20;;;16.90;1.00;;;;;;5076882;28;20527;-46
2024/03/29 12:08:33;;;;;;;1.23;1.00;;;17.10;1.00;;;;;;5061015;28;20411;-44
2024/03/29 12:10:59;;;;;;;1.50;1.10;;;17.10;1.00;;;;;;5077286;28;20430;-42
2024/03/29 12:13:25;;;;;;;4.20;1.00;;;16.90;1.00;;;;;;5077185;28;20836;-42
2024/03/29 12:15:51;;;;;;;1.73;1.17;;;17.00;1.00;;;;;;5077294;28;20538;-43
2024/03/29 12:18:19;;;;;;;2.23;1.13;;;17.30;1.00;;;;;;5077454;28;20557;-43
2024/03/29 12:20:49;;;;;;;1.70;1.20;;;17.40;1.00;;;;;;5076916;28;20172;-43
2024/03/29 12:23:16;;;;;;;3.73;1.37;;;17.60;1.00;;;;;;5059722;28;20476;-43
2024/03/29 12:25:42;;;;;;;1.50;1.00;;;17.90;1.00;;;;;;5059638;28;20896;-42
2024/03/29 12:28:08;;;;;;;1.67;1.13;;;18.10;1.00;;;;;;5077023;28;20431;-42
2024/03/29 12:30:35;;;;;;;2.10;1.07;;;18.30;1.00;;;;;;5075696;28;20439;-43
2024/03/29 12:33:11;;;;;;;1.20;1.10;;;18.60;1.00;;;;;;5075571;28;20442;-42
2024/03/29 12:35:37;;;;;;;1.70;1.00;;;18.80;1.00;;;;;;5076590;28;20479;-42
2024/03/29 12:38:06;;;;;;;1.93;0.90;;;19.00;1.00;;;;;;5077096;28;20558;-42
2024/03/29 12:40:39;;;;;;;2.70;2.50;;;19.20;1.00;;;;;;5076948;28;20861;-43
2024/03/29 12:43:08;;;;;;;2.07;1.10;;;19.70;1.00;;;;;;5060471;28;20428;-44
2024/03/29 12:45:34;;;;;;;1.40;1.20;;;20.20;1.00;;;;;;5061128;28;20423;-46
2024/03/29 12:47:59;;;;;;;1.70;1.03;;;20.20;1.00;;;;;;5080376;28;20423;-44
2024/03/29 12:50:27;;;;;;;1.20;0.87;;;20.00;1.00;;;;;;5080123;28;20414;-44
2024/03/29 12:53:06;;;;;;;1.50;0.90;;;19.90;1.00;;;;;;5080873;28;20196;-43
2024/03/29 12:55:34;;;;;;;1.20;0.80;;;19.60;1.00;;;;;;5062815;28;20431;-42
2024/03/29 12:58:00;;;;;;;1.83;1.30;;;19.40;1.00;;;;;;5080343;28;20470;-44
2024/03/29 13:00:27;;;;;;;1.70;1.00;;;19.50;1.00;;;;;;5063116;28;20437;-44
2024/03/29 13:02:53;;;;;;;1.63;1.13;;;19.80;1.00;;;;;;5079680;28;20177;-43
2024/03/29 13:05:19;;;;;;;2.60;1.00;;;20.40;1.00;;;;;;5079820;28;20515;-43